Latest Weather Observations for Tamworth Airport

IDN60801

Issued at 10:02 pm EDT Saturday 25 February 2017 (issued every 30 minutes, with the page automatically refreshed every 10 minutes)

About weather observations | Map of weather stations | Latest weather observations for NSW | Other Formats
Station Details ID: 055325 Name: TAMWORTH AIRPORT AWS Lat: -31.07 Lon: 150.84 Height: 394.9 m
Data from the previous 72 hours. | See also: Recent months at Tamworth Airport
Date/Time
EDT
Temp
°C
App
Temp
°C
Dew
Point
°C
Rel
Hum
%
Delta-T
°C
Wind Press
QNH
hPa
Press
MSL
hPa
Rain since
9am
mm
Dir  Spd
km/h
Gust
km/h
Spd
kts
Gust
kts
25/10:00pm 25.0 20.7 12.2 44 7.5 ESE 26 35 14 19 1016.9 1014.7 0.0
25/09:30pm 25.6 21.2 11.7 42 8.0 ESE 26 33 14 18 1016.4 1014.2 0.0
25/09:00pm 26.0 21.9 11.4 40 8.4 ESE 24 35 13 19 1016.4 1014.2 0.0
25/08:30pm 26.3 22.1 11.2 38 8.7 ESE 24 37 13 20 1016.2 1014.0 0.0
25/08:00pm 26.8 20.8 10.9 37 9.1 ESE 33 43 18 23 1015.5 1013.3 0.0
25/07:30pm 27.6 21.9 11.2 36 9.5 SE 32 39 17 21 1014.9 1012.7 0.0
25/07:00pm 28.2 22.9 11.3 35 9.8 SE 30 39 16 21 1014.3 1012.1 0.0
25/06:30pm 28.6 22.8 10.8 33 10.3 SE 32 43 17 23 1014.3 1012.1 0.0
25/06:27pm 28.7 23.7 10.8 33 10.4 SE 28 43 15 23 1014.2 1012.0 0.0
25/06:00pm 30.2 26.7 10.2 29 11.5 SSE 19 24 10 13 1013.6 1011.4 0.0
25/05:30pm 31.3 27.8 8.9 25 12.7 S 17 20 9 11 1013.4 1011.2 0.0
25/05:00pm 32.0 28.9 8.9 24 13.2 SSE 15 20 8 11 1013.3 1011.1 0.0
25/04:30pm 33.4 30.7 8.8 22 14.1 SSE 13 22 7 12 1013.4 1011.2 0.0
25/04:00pm 33.9 31.8 9.9 23 14.0 SW 11 24 6 13 1013.8 1011.6 0.0
25/03:30pm 33.5 31.3 9.5 23 13.9 SE 11 19 6 10 1014.4 1012.2 0.0
25/03:00pm 33.0 31.1 9.1 23 13.7 S 9 17 5 9 1014.8 1012.6 0.0
25/02:30pm 32.7 29.4 8.2 22 13.9 E 15 24 8 13 1015.3 1013.2 0.0
25/02:00pm 32.3 30.3 8.5 23 13.5 S 9 19 5 10 1015.9 1013.7 0.0
25/01:30pm 30.9 28.0 8.0 24 12.8 SE 13 24 7 13 1016.4 1014.2 0.0
25/01:00pm 31.1 28.9 9.3 26 12.4 E 11 20 6 11 1016.7 1014.5 0.0
25/12:30pm 29.9 27.5 9.9 29 11.5 E 13 22 7 12 1017.1 1014.9 0.0
25/12:00pm 29.7 27.0 10.3 30 11.2 SE 15 20 8 11 1017.7 1015.6 0.0
25/11:30am 28.2 26.1 9.9 32 10.4 SE 11 19 6 10 1018.4 1016.2 0.0
25/11:00am 27.6 25.3 10.3 34 9.9 ESE 13 22 7 12 1018.8 1016.6 0.0
25/10:30am 26.5 23.4 10.2 36 9.3 ESE 17 22 9 12 1019.0 1016.8 0.0
25/10:00am 25.9 22.8 11.6 40 8.3 ESE 19 32 10 17 1019.1 1016.9 0.0
25/09:30am 25.3 22.3 11.8 43 7.8 E 19 24 10 13 1019.3 1017.1 0.0
25/09:00am 24.3 21.2 12.3 47 7.0 ESE 20 30 11 16 1019.2 1017.0 0.0
25/08:30am 23.5 20.5 12.5 50 6.4 E 20 26 11 14 1019.2 1017.0 0.0
25/08:00am 22.8 19.5 12.7 53 5.9 E 22 30 12 16 1018.9 1016.7 0.0
25/07:30am 21.7 19.1 13.3 59 4.9 ESE 19 22 10 12 1018.5 1016.3 0.0
25/07:00am 20.2 18.0 13.4 65 4.0 ESE 17 22 9 12 1018.0 1015.9 0.0
25/06:30am 20.7 17.6 13.4 63 4.3 ESE 22 30 12 16 1017.6 1015.5 0.0
25/06:00am 19.8 17.7 13.7 68 3.6 SE 17 22 9 12 1017.4 1015.3 0.0
25/05:30am 19.9 17.8 13.6 67 3.7 SE 17 20 9 11 1017.0 1014.8 0.0
25/05:00am 20.2 17.8 13.9 67 3.7 SE 19 24 10 13 1016.7 1014.5 0.0
25/04:30am 20.6 18.7 14.3 67 3.7 SSE 17 22 9 12 1016.5 1014.3 0.0
25/04:00am 21.2 19.5 14.6 66 3.9 SSE 17 20 9 11 1016.4 1014.2 0.0
25/03:30am 20.9 18.4 13.6 63 4.3 SSE 19 20 10 11 1016.2 1014.0 0.0
25/03:00am 21.2 18.7 13.4 61 4.6 SSE 19 20 10 11 1016.4 1014.2 0.0
25/02:30am 22.2 20.0 13.3 57 5.2 SE 17 20 9 11 1016.3 1014.1 0.0
25/02:00am 22.6 20.2 12.5 53 5.8 SE 17 20 9 11 1016.4 1014.2 0.0
25/01:30am 23.2 20.9 13.1 53 5.9 SSE 17 20 9 11 1016.4 1014.2 0.0
25/01:00am 23.8 22.1 12.4 48 6.6 SSE 13 19 7 10 1016.4 1014.2 0.0
25/12:30am 23.8 21.9 11.8 47 6.9 S 13 15 7 8 1016.5 1014.3 0.0
25/12:00am 25.6 25.6 13.5 47 7.2 ENE 6 9 3 5 1016.5 1014.3 0.0
 
Date/Time
EDT
Temp
°C
App
Temp
°C
Dew
Point
°C
Rel
Hum
%
Delta-T
°C
Wind Press
QNH
hPa
Press
MSL
hPa
Rain since
9am
mm
Dir  Spd
km/h
Gust
km/h
Spd
kts
Gust
kts
24/11:30pm 26.7 25.7 13.4 43 8.0 NNE 11 19 6 10 1016.9 1014.7 0.0
24/11:00pm 26.5 25.3 13.9 45 7.6 NNE 13 15 7 8 1017.4 1015.3 0.0
24/10:30pm 26.8 24.7 13.5 44 8.0 SE 17 24 9 13 1017.7 1015.6 0.0
24/10:00pm 26.8 24.3 13.5 44 8.0 SSE 19 22 10 12 1017.5 1015.4 0.0
24/09:30pm 27.1 25.7 13.4 42 8.2 SE 13 17 7 9 1017.4 1015.3 0.0
24/09:00pm 27.9 24.4 13.4 40 8.7 SSE 24 37 13 20 1017.2 1015.0 0.0
24/08:30pm 28.7 23.4 13.0 38 9.4 SSE 33 43 18 23 1016.9 1014.7 0.0
24/08:04pm 29.8 24.7 11.8 33 10.6 S 30 50 16 27 1016.2 1014.0 0.0
24/08:00pm 30.0 25.5 11.5 32 10.9 S 26 41 14 22 1016.2 1014.0 0.0
24/07:30pm 31.7 28.9 8.7 24 13.1 E 13 19 7 10 1015.3 1013.2 0.0
24/07:00pm 31.1 27.8 6.2 21 13.5 SE 13 22 7 12 1014.7 1012.5 0.0
24/06:30pm 32.6 29.3 4.4 17 15.0 SE 11 15 6 8 1014.7 1012.5 0.0
24/06:00pm 35.0 30.6 4.5 15 16.5 SSE 17 24 9 13 1014.4 1012.2 0.0
24/05:30pm 34.3 30.7 4.9 16 15.9 SSE 13 17 7 9 1014.5 1012.3 0.0
24/05:00pm 35.2 32.7 6.5 17 16.0 SSE 9 15 5 8 1014.8 1012.6 0.0
24/04:30pm 35.1 31.6 5.5 16 16.2 SSW 13 20 7 11 1014.8 1012.6 0.0
24/04:00pm 34.4 30.2 5.8 17 15.7 S 17 28 9 15 1015.1 1013.0 0.0
24/03:30pm 35.7 32.3 6.0 16 16.5 SSE 13 26 7 14 1015.3 1013.2 0.0
24/03:00pm 35.0 31.1 7.1 18 15.7 SSW 17 30 9 16 1015.9 1013.7 0.0
24/02:30pm 34.8 32.4 8.5 20 15.1 SW 11 19 6 10 1016.4 1014.2 0.0
24/02:00pm 34.9 32.3 7.9 19 15.3 S 11 20 6 11 1017.0 1014.8 0.0
24/01:30pm 34.9 32.1 8.6 20 15.1 SW 13 24 7 13 1017.5 1015.4 0.0
24/01:00pm 34.7 32.1 9.2 21 14.8 SSW 13 24 7 13 1018.2 1016.0 0.0
24/12:30pm 34.1 31.0 8.7 21 14.6 SSW 15 28 8 15 1018.6 1016.4 0.0
24/12:00pm 32.4 30.5 9.2 24 13.3 WSW 9 13 5 7 1019.2 1017.0 0.0
24/11:30am 31.2 29.0 9.4 26 12.5 WNW 11 19 6 10 1019.6 1017.5 0.0
24/11:00am 30.7 28.7 10.1 28 11.9 W 11 20 6 11 1020.0 1017.9 0.0
24/10:30am 29.8 29.2 10.4 30 11.2 SSE 4 9 2 5 1020.1 1018.0 0.0
24/10:00am 28.1 27.2 10.8 34 10.0 NE 6 9 3 5 1020.2 1018.1 0.0
24/09:30am 26.4 25.8 11.7 40 8.5 NNE 6 9 3 5 1020.1 1018.0 0.0
24/09:00am 24.5 24.0 12.1 46 7.2 ENE 6 9 3 5 1020.0 1017.9 0.0
24/08:30am 23.0 22.6 12.3 51 6.2 SE 6 9 3 5 1019.8 1017.7 0.0
24/08:00am 20.8 20.0 12.8 60 4.6 SSE 9 13 5 7 1019.7 1017.6 0.0
24/07:46am 19.6 19.1 12.8 65 3.9 S 7 11 4 6 1019.6 1017.5 0.0
24/07:30am 17.5 17.5 12.4 72 2.9 SSW 4 6 2 3 1019.4 1017.2 0.0
24/07:23am 17.2 16.7 12.1 72 2.9 S 6 7 3 4 1019.4 1017.2 0.0
24/07:00am 17.0 15.8 11.5 70 3.0 S 9 15 5 8 1019.0 1016.8 0.0
24/06:30am 17.4 15.1 11.9 70 3.1 SSE 15 17 8 9 1018.7 1016.5 0.0
24/06:09am 16.9 15.3 11.6 71 2.9 SSE 11 13 6 7 1018.6 1016.4 0.0
24/06:00am 17.3 16.5 11.8 70 3.1 SE 7 11 4 6 1018.5 1016.3 0.0
24/05:50am 16.7 15.8 11.2 70 3.0 SSE 7 9 4 5 1018.4 1016.2 0.0
24/05:30am 17.1 17.2 11.4 69 3.2 ESE 2 7 1 4 1018.4 1016.2 0.0
24/05:00am 18.1 16.8 11.4 65 3.7 SSE 9 11 5 6 1018.0 1015.9 0.0
24/04:30am 18.5 16.5 11.6 64 3.9 S 13 17 7 9 1017.9 1015.8 0.0
24/04:26am 18.6 16.2 11.4 63 4.0 S 15 17 8 9 1017.9 1015.8 0.0
24/04:08am 19.3 17.5 12.1 63 4.1 S 13 17 7 9 1018.0 1015.9 0.0
24/04:00am 18.9 17.4 11.9 64 3.9 SSE 11 13 6 7 1018.0 1015.9 0.0
24/03:30am 18.8 19.3 11.6 63 4.0 CALM 0 0 0 0 1018.2 1016.0 0.0
24/03:21am 17.0 17.0 9.9 63 3.8 CALM 0 0 0 0 1018.2 1016.0 0.0
24/03:20am 23.7 25.8 16.2 63 4.6 CALM 0 0 0 0 1018.2 1016.0 0.0
24/03:00am 18.3 17.3 11.1 63 4.0 ENE 7 11 4 6 1018.2 1016.0 0.0
24/02:30am 21.6 20.4 11.6 53 5.7 SE 9 13 5 7 1018.4 1016.2 0.0
24/02:00am 22.6 20.0 12.0 51 6.1 S 17 19 9 10 1018.5 1016.3 0.0
24/01:30am 21.7 19.4 11.7 53 5.7 SSE 15 15 8 8 1018.6 1016.4 0.0
24/01:00am 21.8 20.0 12.1 54 5.5 SSE 13 15 7 8 1018.7 1016.5 0.0
24/12:30am 21.5 20.0 11.8 54 5.5 SE 11 13 6 7 1018.8 1016.6 0.0
24/12:00am 22.4 20.4 11.5 50 6.2 SSE 13 15 7 8 1018.8 1016.6 0.0
 
Date/Time
EDT
Temp
°C
App
Temp
°C
Dew
Point
°C
Rel
Hum
%
Delta-T
°C
Wind Press
QNH
hPa
Press
MSL
hPa
Rain since
9am
mm
Dir  Spd
km/h
Gust
km/h
Spd
kts
Gust
kts
23/11:30pm 24.3 23.1 11.6 45 7.3 SE 9 11 5 6 1018.9 1016.7 0.0
23/11:00pm 25.9 24.3 11.6 40 8.3 E 11 13 6 7 1019.0 1016.8 0.0
23/10:30pm 27.1 25.0 11.2 37 9.2 E 13 20 7 11 1019.0 1016.8 0.0
23/10:00pm 28.0 24.3 10.2 33 10.2 ESE 20 26 11 14 1019.0 1016.8 0.0
23/09:30pm 28.2 25.3 9.5 31 10.6 E 15 19 8 10 1018.9 1016.7 0.0
23/09:00pm 28.3 24.6 9.6 31 10.6 ESE 19 20 10 11 1018.4 1016.2 0.0
23/08:30pm 29.2 25.5 9.3 29 11.3 ESE 19 22 10 12 1018.0 1015.9 0.0
23/08:00pm 29.3 26.2 8.9 28 11.5 S 15 30 8 16 1017.5 1015.4 0.0
23/07:30pm 29.8 28.1 9.9 29 11.4 SSW 9 11 5 6 1017.2 1015.0 0.0
23/07:00pm 31.6 29.4 9.2 25 12.8 SSW 11 13 6 7 1016.9 1014.7 0.0
23/06:30pm 32.9 29.7 8.4 22 13.9 SSW 15 20 8 11 1016.7 1014.5 0.0
23/06:00pm 34.6 30.8 9.1 21 14.7 S 19 26 10 14 1016.6 1014.4 0.0
23/05:30pm 35.1 32.7 8.8 20 15.2 S 11 20 6 11 1016.5 1014.3 0.0
23/05:00pm 34.8 31.6 9.9 22 14.6 SSW 17 24 9 13 1016.6 1014.4 0.0
23/04:30pm 33.6 31.5 8.3 21 14.4 S 9 19 5 10 1016.8 1014.6 0.0
23/04:00pm 35.3 32.6 8.9 20 15.3 SW 13 24 7 13 1017.0 1014.8 0.0
23/03:30pm 34.8 32.7 9.9 22 14.6 W 11 20 6 11 1017.5 1015.4 0.0
23/03:00pm 34.2 32.2 10.1 23 14.1 S 11 22 6 12 1017.7 1015.6 0.0
23/02:30pm 34.0 32.9 10.6 24 13.8 NNE 7 11 4 6 1018.0 1015.9 0.0
23/02:00pm 33.8 33.0 11.6 26 13.3 SSE 7 15 4 8 1018.5 1016.3 0.0
23/01:30pm 32.6 31.0 11.7 28 12.5 WSW 11 22 6 12 1019.0 1016.8 0.0
23/01:00pm 31.7 31.0 12.0 30 11.8 WNW 7 20 4 11 1019.4 1017.2 0.0
23/12:30pm 31.6 30.8 12.9 32 11.3 WSW 9 19 5 10 1019.8 1017.7 0.0
23/12:00pm 29.9 29.2 13.2 36 10.1 NW 9 17 5 9 1020.2 1018.1 0.0
23/11:30am 29.1 28.6 13.7 38 9.4 SW 9 19 5 10 1020.6 1018.5 0.0
23/11:00am 27.8 27.0 13.0 40 8.8 S 9 17 5 9 1021.1 1018.9 0.0
23/10:30am 27.3 27.0 14.3 45 7.9 ENE 9 13 5 7 1021.2 1019.0 0.0
23/10:00am 25.6 25.5 13.8 48 7.1 S 7 13 4 7 1021.2 1019.0 0.0
23/09:30am 24.9 24.6 14.4 52 6.3 SE 9 15 5 8 1021.0 1018.8 0.0
23/09:00am 22.5 22.2 14.4 60 4.8 SSW 9 13 5 7 1021.1 1018.9 -
23/08:30am 21.2 21.5 14.6 66 3.9 SW 6 9 3 5 1020.9 1018.7 -
23/08:00am 19.9 21.3 14.3 70 3.3 CALM 0 0 0 0 1020.6 1018.5 -
23/07:30am 18.3 18.5 14.6 79 2.2 SE 7 9 4 5 1020.3 1018.2 -
23/07:00am 16.6 16.5 13.9 84 1.6 S 7 9 4 5 1020.2 1018.1 -
23/06:30am 15.3 15.1 13.0 86 1.3 WSW 6 7 3 4 1020.1 1018.0 -
23/06:00am 15.2 14.7 12.2 82 1.7 W 6 7 3 4 1019.8 1017.7 -
23/05:30am 16.8 15.8 13.5 81 1.9 SSE 11 13 6 7 1019.6 1017.5 -
23/05:00am 16.8 16.2 13.5 81 1.9 S 9 9 5 5 1019.3 1017.1 -
23/04:30am 16.4 16.2 11.8 74 2.6 N 4 7 2 4 1019.2 1017.0 -
23/04:00am 18.4 18.4 14.1 76 2.5 E 7 9 4 5 1019.1 1016.9 -
23/03:30am 16.8 17.0 12.9 78 2.2 S 4 7 2 4 1019.1 1016.9 -
23/03:04am 18.7 19.7 13.3 71 3.1 CALM 0 0 0 0 1019.1 1016.9 -
23/03:01am 24.6 27.9 19.2 72 3.5 CALM 0 0 0 0 1019.1 1016.9 -
23/03:00am 14.1 13.9 8.9 71 2.7 CALM 0 0 0 0 1019.1 1016.9 0.0
23/02:30am 19.5 19.0 13.7 69 3.4 ESE 9 11 5 6 1019.2 1017.0 -
23/02:00am 20.4 19.4 13.4 64 4.1 ESE 11 13 6 7 1019.1 1016.9 -
23/01:30am 21.5 19.8 13.7 61 4.6 ESE 15 20 8 11 1019.2 1017.0 -
23/01:00am 21.3 20.0 13.7 62 4.5 ESE 13 17 7 9 1019.5 1017.4 -
23/12:30am 22.2 20.0 13.3 57 5.2 SE 17 20 9 11 1019.4 1017.2 -
23/12:00am 21.6 20.2 13.5 60 4.7 SE 13 17 7 9 1019.4 1017.2 -
 
Date/Time
EDT
Temp
°C
App
Temp
°C
Dew
Point
°C
Rel
Hum
%
Delta-T
°C
Wind Press
QNH
hPa
Press
MSL
hPa
Rain since
9am
mm
Dir  Spd
km/h
Gust
km/h
Spd
kts
Gust
kts
22/11:30pm 21.8 20.2 12.9 57 5.2 SE 13 17 7 9 1019.3 1017.1 -
22/11:00pm 22.0 20.7 12.5 54 5.5 SSE 11 13 6 7 1019.2 1017.0 -
22/10:30pm 24.1 22.7 12.1 47 7.0 SE 11 17 6 9 1019.1 1016.9 -

Other Formats:

Comma delimited format used in spreadsheet applications
http://www.bom.gov.au/fwo/IDN60801/IDN60801.95762.axf

JavaScript Object Notation format (JSON) in row-major order
http://www.bom.gov.au/fwo/IDN60801/IDN60801.95762.json